createdAt,value
2019-02-11T00:02:11.100Z,0.10
2019-02-11T00:04:38.332Z,0.13
2019-02-11T00:07:05.603Z,0.30
2019-02-11T00:09:32.839Z,0.40
2019-02-11T00:12:00.067Z,0.30
2019-02-11T00:14:27.331Z,0.20
2019-02-11T00:16:54.576Z,0.40
2019-02-11T00:19:21.819Z,0.23
2019-02-11T00:21:49.135Z,0.43
2019-02-11T00:24:16.391Z,0.13
2019-02-11T00:26:43.619Z,0.30
2019-02-11T00:29:11.020Z,0.40
2019-02-11T00:31:38.276Z,0.50
2019-02-11T00:34:05.515Z,0.50
2019-02-11T00:36:32.751Z,0.73
2019-02-11T00:38:59.988Z,0.40
2019-02-11T00:41:27.226Z,0.20
2019-02-11T00:43:54.799Z,0.30
2019-02-11T00:46:22.114Z,0.57
2019-02-11T00:48:49.387Z,0.30
2019-02-11T00:51:16.623Z,0.30
2019-02-11T00:53:43.900Z,0.30
2019-02-11T00:56:11.150Z,0.30
2019-02-11T00:58:38.378Z,0.20
2019-02-11T01:01:05.633Z,0.50
2019-02-11T01:03:32.904Z,0.60
2019-02-11T01:06:00.165Z,0.50
2019-02-11T01:08:27.399Z,0.50
2019-02-11T01:10:54.654Z,0.50
2019-02-11T01:13:27.541Z,0.50
2019-02-11T01:15:51.136Z,0.53
2019-02-11T01:18:18.362Z,0.40
2019-02-11T01:20:45.619Z,0.50
2019-02-11T01:23:12.846Z,0.50
2019-02-11T01:25:40.094Z,0.57
2019-02-11T01:28:07.336Z,0.87
2019-02-11T01:30:34.571Z,0.40
2019-02-11T01:33:01.835Z,0.60
2019-02-11T01:35:29.075Z,1.07
2019-02-11T01:37:56.319Z,0.60
2019-02-11T01:40:23.591Z,0.53
2019-02-11T01:42:50.860Z,0.43
2019-02-11T01:45:18.104Z,0.40
2019-02-11T01:47:45.347Z,0.80
2019-02-11T01:50:12.835Z,0.33
2019-02-11T01:52:40.078Z,0.80
2019-02-11T01:55:07.422Z,0.80
2019-02-11T01:57:34.669Z,0.70
2019-02-11T02:00:01.903Z,0.50
2019-02-11T02:02:29.139Z,0.43
2019-02-11T02:04:56.416Z,0.50
2019-02-11T02:07:23.664Z,0.60
2019-02-11T02:09:51.023Z,0.40
2019-02-11T02:12:18.282Z,0.53
2019-02-11T02:14:45.615Z,0.20
2019-02-11T02:17:32.369Z,0.30
2019-02-11T02:19:59.596Z,0.30
2019-02-11T02:22:26.841Z,0.57
2019-02-11T02:24:54.087Z,0.37
2019-02-11T02:27:21.350Z,0.40
2019-02-11T02:29:48.608Z,0.40
2019-02-11T02:32:15.849Z,0.30
2019-02-11T02:34:43.094Z,0.33
2019-02-11T02:37:10.339Z,0.20
2019-02-11T02:39:37.563Z,0.10
2019-02-11T02:42:04.827Z,0.53
2019-02-11T02:44:32.119Z,0.77
2019-02-11T02:46:59.357Z,0.30
2019-02-11T02:49:26.617Z,0.20
2019-02-11T02:51:53.849Z,0.50
2019-02-11T02:54:21.195Z,0.43
2019-02-11T02:56:48.448Z,0.30
2019-02-11T02:59:15.825Z,0.57
2019-02-11T03:01:43.079Z,0.30
2019-02-11T03:04:10.326Z,0.53
2019-02-11T03:06:37.596Z,0.67
2019-02-11T03:09:04.992Z,0.47
2019-02-11T03:11:32.248Z,0.37
2019-02-11T03:14:05.342Z,0.40
2019-02-11T03:16:28.612Z,0.70
2019-02-11T03:18:55.960Z,0.30
2019-02-11T03:21:23.183Z,0.47
2019-02-11T03:23:50.439Z,0.43
2019-02-11T03:26:17.686Z,0.20
2019-02-11T03:28:45.055Z,0.50
2019-02-11T03:31:12.312Z,0.30
2019-02-11T03:33:39.560Z,0.30
2019-02-11T03:36:06.819Z,0.30
2019-02-11T03:38:34.065Z,0.10
2019-02-11T03:41:01.426Z,0.33
2019-02-11T03:43:28.707Z,0.00
2019-02-11T03:45:55.956Z,0.00
2019-02-11T03:48:23.615Z,0.03
2019-02-11T03:50:51.315Z,0.10
2019-02-11T03:53:19.196Z,0.10
2019-02-11T03:55:46.882Z,0.10
2019-02-11T03:58:14.540Z,0.07
2019-02-11T04:00:42.238Z,0.00
2019-02-11T04:03:09.568Z,0.00
2019-02-11T04:05:36.799Z,0.07
2019-02-11T04:08:04.085Z,0.10
2019-02-11T04:10:31.315Z,0.10
2019-02-11T04:12:58.583Z,0.23
2019-02-11T04:15:25.836Z,0.00
2019-02-11T04:17:53.068Z,0.10
2019-02-11T04:20:20.395Z,0.10
2019-02-11T04:22:47.659Z,0.00
2019-02-11T04:25:14.903Z,0.00
2019-02-11T04:27:42.164Z,0.00
2019-02-11T04:30:09.483Z,0.10
2019-02-11T04:32:36.792Z,0.27
2019-02-11T04:35:04.251Z,0.10
2019-02-11T04:37:31.510Z,0.10
2019-02-11T04:39:58.739Z,0.20
2019-02-11T04:42:26.005Z,0.10
2019-02-11T04:44:53.257Z,0.20
2019-02-11T04:47:20.509Z,0.10
2019-02-11T04:49:47.755Z,0.10
2019-02-11T04:52:15.013Z,0.20
2019-02-11T04:54:42.292Z,0.10
2019-02-11T04:57:09.597Z,0.10
2019-02-11T04:59:36.846Z,0.10
2019-02-11T05:02:04.117Z,0.20
2019-02-11T05:04:31.466Z,0.20
2019-02-11T05:06:58.697Z,0.40
2019-02-11T05:09:25.927Z,0.47
2019-02-11T05:11:53.179Z,0.10
2019-02-11T05:14:20.403Z,0.30
2019-02-11T05:16:47.636Z,0.43
2019-02-11T05:19:34.755Z,0.60
2019-02-11T05:22:02.074Z,0.30
2019-02-11T05:24:29.694Z,0.50
2019-02-11T05:26:56.966Z,0.27
2019-02-11T05:29:24.352Z,0.40
2019-02-11T05:31:51.643Z,0.30
2019-02-11T05:34:18.873Z,0.27
2019-02-11T05:36:46.156Z,0.20
2019-02-11T05:39:13.391Z,0.20
2019-02-11T05:41:40.621Z,0.40
2019-02-11T05:44:07.948Z,0.70
2019-02-11T05:46:35.181Z,0.30
2019-02-11T05:49:02.424Z,0.50
2019-02-11T05:51:29.675Z,0.40
2019-02-11T05:53:57.035Z,0.40
2019-02-11T05:56:24.351Z,0.73
2019-02-11T05:58:51.595Z,0.70
2019-02-11T06:01:19.242Z,1.00
2019-02-11T06:03:46.463Z,0.70
2019-02-11T06:06:13.747Z,1.03
2019-02-11T06:08:40.975Z,0.80
2019-02-11T06:11:08.229Z,1.20
2019-02-11T06:13:35.478Z,1.40
2019-02-11T06:16:02.751Z,1.20
2019-02-11T06:18:30.055Z,1.10
2019-02-11T06:20:57.297Z,0.90
2019-02-11T06:23:24.569Z,1.63
2019-02-11T06:25:51.859Z,1.63
2019-02-11T06:28:19.168Z,1.70
2019-02-11T06:30:50.336Z,1.60
2019-02-11T06:33:17.583Z,2.60
2019-02-11T06:35:45.034Z,2.70
2019-02-11T06:38:12.334Z,2.97
2019-02-11T06:40:39.576Z,2.33
2019-02-11T06:43:06.927Z,2.57
2019-02-11T06:45:34.190Z,2.23
2019-02-11T06:48:01.432Z,3.37
2019-02-11T06:50:28.707Z,2.30
2019-02-11T06:52:55.984Z,3.30
2019-02-11T06:55:23.227Z,2.10
2019-02-11T06:57:50.598Z,2.23
2019-02-11T07:00:19.046Z,2.30
2019-02-11T07:02:47.432Z,2.17
2019-02-11T07:05:14.814Z,2.53
2019-02-11T07:07:45.489Z,2.30
2019-02-11T07:10:13.294Z,2.27
2019-02-11T07:12:40.665Z,2.57
2019-02-11T07:15:09.351Z,2.00
2019-02-11T07:17:36.712Z,2.27
2019-02-11T07:20:04.404Z,1.90
2019-02-11T07:22:31.631Z,2.13
2019-02-11T07:24:58.916Z,2.07
2019-02-11T07:27:26.222Z,1.60
2019-02-11T07:29:53.472Z,1.97
2019-02-11T07:32:20.722Z,2.00
2019-02-11T07:34:48.071Z,1.90
2019-02-11T07:37:15.346Z,2.00
2019-02-11T07:39:42.583Z,1.83
2019-02-11T07:42:28.317Z,1.77
2019-02-11T07:45:01.098Z,2.30
2019-02-11T07:47:28.432Z,2.67
2019-02-11T07:49:55.743Z,2.17
2019-02-11T07:52:26.901Z,1.60
2019-02-11T07:54:52.212Z,2.47
2019-02-11T07:57:19.482Z,2.03
2019-02-11T07:59:46.720Z,2.10
2019-02-11T08:02:14.059Z,2.17
2019-02-11T08:04:41.306Z,2.13
2019-02-11T08:07:08.564Z,2.20
2019-02-11T08:09:35.895Z,1.63
2019-02-11T08:12:03.149Z,2.20
2019-02-11T08:14:30.411Z,2.60
2019-02-11T08:16:57.631Z,3.17
2019-02-11T08:19:25.015Z,4.63
2019-02-11T08:21:52.263Z,2.93
2019-02-11T08:24:19.494Z,1.13
2019-02-11T08:26:46.804Z,2.10
2019-02-11T08:29:14.160Z,1.50
2019-02-11T08:31:41.404Z,2.20
2019-02-11T08:34:08.663Z,1.73
2019-02-11T08:36:35.927Z,1.57
2019-02-11T08:39:05.821Z,1.90
2019-02-11T08:41:33.125Z,1.07
2019-02-11T08:44:00.381Z,1.63
2019-02-11T08:46:27.639Z,1.57
2019-02-11T08:48:54.913Z,1.47
2019-02-11T08:51:22.255Z,1.80
2019-02-11T08:53:49.522Z,1.63
2019-02-11T08:56:16.871Z,1.60
2019-02-11T08:58:44.214Z,2.07
2019-02-11T09:01:11.455Z,1.50
2019-02-11T09:03:38.680Z,1.27
2019-02-11T09:06:05.961Z,1.90
2019-02-11T09:08:33.192Z,1.67
2019-02-11T09:11:00.431Z,1.20
2019-02-11T09:13:27.688Z,1.23
2019-02-11T09:15:55.461Z,2.00
2019-02-11T09:18:22.978Z,1.30
2019-02-11T09:20:50.252Z,1.67
2019-02-11T09:23:17.473Z,1.90
2019-02-11T09:25:44.729Z,1.20
2019-02-11T09:28:11.972Z,1.90
2019-02-11T09:30:39.938Z,1.57
2019-02-11T09:33:07.394Z,1.13
2019-02-11T09:35:34.730Z,1.43
2019-02-11T09:38:01.989Z,1.07
2019-02-11T09:40:29.223Z,1.07
2019-02-11T09:42:56.462Z,1.43
2019-02-11T09:45:23.847Z,1.03
2019-02-11T09:47:51.088Z,0.93
2019-02-11T09:50:30.857Z,1.40
2019-02-11T09:52:58.148Z,0.70
2019-02-11T09:55:27.499Z,1.50
2019-02-11T09:57:54.783Z,1.07
2019-02-11T10:00:22.116Z,1.20
2019-02-11T10:02:49.363Z,1.23
2019-02-11T10:05:16.615Z,0.97
2019-02-11T10:07:43.971Z,1.83
2019-02-11T10:10:11.244Z,1.30
2019-02-11T10:12:38.618Z,0.80
2019-02-11T10:15:07.801Z,1.90
2019-02-11T10:17:35.076Z,1.07
2019-02-11T10:20:02.355Z,1.57
2019-02-11T10:22:29.628Z,1.20
2019-02-11T10:24:56.863Z,1.70
2019-02-11T10:27:24.091Z,1.37
2019-02-11T10:29:51.333Z,1.00
2019-02-11T10:32:18.687Z,1.53
2019-02-11T10:34:45.924Z,1.10
2019-02-11T10:37:13.160Z,1.00
2019-02-11T10:39:40.427Z,1.00
2019-02-11T10:42:07.955Z,1.20
2019-02-11T10:44:35.216Z,1.03
2019-02-11T10:47:03.647Z,1.33
2019-02-11T10:49:30.895Z,1.20
2019-02-11T10:51:58.171Z,1.30
2019-02-11T10:54:25.403Z,1.00
2019-02-11T10:56:52.629Z,1.33
2019-02-11T10:59:19.887Z,1.70
2019-02-11T11:01:47.127Z,1.33
2019-02-11T11:04:14.454Z,1.67
2019-02-11T11:06:41.710Z,1.50
2019-02-11T11:09:13.762Z,1.17
2019-02-11T11:11:41.006Z,0.97
2019-02-11T11:14:08.255Z,1.30
2019-02-11T11:16:35.487Z,1.53
2019-02-11T11:19:02.847Z,1.00
2019-02-11T11:21:30.413Z,1.10
2019-02-11T11:23:57.659Z,3.40
2019-02-11T11:26:24.935Z,1.90
2019-02-11T11:28:52.248Z,1.60
2019-02-11T11:31:19.516Z,1.10
2019-02-11T11:33:46.880Z,1.10
2019-02-11T11:36:14.332Z,0.80
2019-02-11T11:38:41.587Z,1.20
2019-02-11T11:41:08.865Z,1.53
2019-02-11T11:43:36.095Z,1.17
2019-02-11T11:46:03.491Z,1.03
2019-02-11T11:48:30.749Z,1.53
2019-02-11T11:50:58.013Z,1.13
2019-02-11T11:53:25.767Z,1.37
2019-02-11T11:55:53.288Z,1.20
2019-02-11T11:58:20.801Z,2.00
2019-02-11T12:00:48.286Z,1.10
2019-02-11T12:03:16.132Z,1.00
2019-02-11T12:05:43.670Z,1.27
2019-02-11T12:08:11.144Z,1.20
2019-02-11T12:10:38.510Z,0.97
2019-02-11T12:13:25.730Z,1.10
2019-02-11T12:15:53.086Z,1.27
2019-02-11T12:18:20.508Z,1.50
2019-02-11T12:20:47.855Z,1.40
2019-02-11T12:23:15.239Z,1.03
2019-02-11T12:25:42.475Z,0.77
2019-02-11T12:28:09.758Z,1.33
2019-02-11T12:30:37.270Z,1.10
2019-02-11T12:33:04.647Z,1.30
2019-02-11T12:35:32.015Z,1.40
2019-02-11T12:37:59.358Z,1.33
2019-02-11T12:40:26.649Z,1.27
2019-02-11T12:42:54.458Z,1.37
2019-02-11T12:45:22.341Z,1.13
2019-02-11T12:47:49.704Z,1.27
2019-02-11T12:50:17.168Z,1.30
2019-02-11T12:52:44.629Z,0.73
2019-02-11T12:55:13.349Z,0.90
2019-02-11T12:57:40.742Z,0.93
2019-02-11T13:00:17.486Z,1.40
2019-02-11T13:02:45.762Z,1.37
2019-02-11T13:05:13.957Z,0.50
2019-02-11T13:08:02.601Z,1.50
2019-02-11T13:10:30.100Z,1.63
2019-02-11T13:12:57.619Z,0.87
2019-02-11T13:15:57.352Z,0.60
2019-02-11T13:17:55.467Z,0.60
2019-02-11T13:20:22.955Z,0.50
2019-02-11T13:22:50.531Z,0.80
2019-02-11T13:25:18.622Z,1.65
2019-02-11T13:27:46.563Z,3.73
2019-02-11T13:30:17.467Z,0.60
2019-02-11T13:32:45.189Z,0.60
2019-02-11T13:35:12.783Z,1.10
2019-02-11T13:37:40.387Z,0.93
2019-02-11T13:40:08.667Z,1.70
2019-02-11T13:42:35.986Z,1.60
2019-02-11T13:45:08.150Z,1.17
2019-02-11T13:47:52.032Z,0.80
2019-02-11T13:50:05.037Z,1.33
2019-02-11T13:52:32.390Z,1.30
2019-02-11T13:55:00.335Z,1.17
2019-02-11T13:57:28.963Z,1.53
2019-02-11T13:59:56.377Z,0.80
2019-02-11T14:02:27.387Z,0.57
2019-02-11T14:04:54.800Z,0.33
2019-02-11T14:07:22.551Z,0.70
2019-02-11T14:09:50.111Z,0.50
2019-02-11T14:12:17.718Z,0.50
2019-02-11T14:14:45.419Z,0.70
2019-02-11T14:17:13.539Z,0.50
2019-02-11T14:19:41.030Z,0.77
2019-02-11T14:22:08.585Z,0.70
2019-02-11T14:24:35.952Z,0.83
2019-02-11T14:27:03.199Z,0.87
2019-02-11T14:29:30.582Z,0.70
2019-02-11T14:31:58.003Z,0.90
2019-02-11T14:34:26.391Z,0.63
2019-02-11T14:36:53.922Z,0.80
2019-02-11T14:39:21.494Z,0.70
2019-02-11T14:41:48.826Z,0.67
2019-02-11T14:44:16.208Z,0.57
2019-02-11T14:46:43.548Z,0.53
2019-02-11T14:49:10.981Z,0.87
2019-02-11T14:51:38.357Z,0.80
2019-02-11T14:54:05.863Z,0.60
2019-02-11T14:56:33.468Z,0.63
2019-02-11T14:59:00.974Z,1.10
2019-02-11T15:01:28.425Z,0.90
2019-02-11T15:03:55.769Z,0.60
2019-02-11T15:06:23.085Z,0.60
2019-02-11T15:08:50.331Z,0.70
2019-02-11T15:11:17.629Z,0.47
2019-02-11T15:13:44.977Z,0.60
2019-02-11T15:16:12.299Z,0.63
2019-02-11T15:18:39.543Z,0.83
2019-02-11T15:21:06.800Z,0.63
2019-02-11T15:23:34.031Z,0.93
2019-02-11T15:26:01.304Z,0.83
2019-02-11T15:28:28.563Z,0.60
2019-02-11T15:30:55.799Z,0.93
2019-02-11T15:33:23.116Z,0.83
2019-02-11T15:35:50.368Z,1.20
2019-02-11T15:38:17.596Z,0.80
2019-02-11T15:40:45.036Z,1.03
2019-02-11T15:43:12.279Z,1.00
2019-02-11T15:45:39.879Z,1.10
2019-02-11T15:48:07.199Z,1.43
2019-02-11T15:50:34.445Z,1.70
2019-02-11T15:53:03.871Z,1.40
2019-02-11T15:55:31.620Z,1.43
2019-02-11T15:57:58.864Z,1.43
2019-02-11T16:00:26.138Z,1.00
2019-02-11T16:02:53.547Z,1.60
2019-02-11T16:05:20.907Z,1.30
2019-02-11T16:07:48.679Z,1.87
2019-02-11T16:10:18.039Z,2.27
2019-02-11T16:12:45.378Z,1.20
2019-02-11T16:15:25.122Z,1.60
2019-02-11T16:18:02.536Z,1.63
2019-02-11T16:20:29.891Z,1.83
2019-02-11T16:22:57.286Z,1.00
2019-02-11T16:25:24.715Z,1.20
2019-02-11T16:27:52.165Z,1.20
2019-02-11T16:30:27.918Z,1.50
2019-02-11T16:32:58.089Z,1.77
2019-02-11T16:35:25.482Z,1.43
2019-02-11T16:37:53.881Z,1.47
2019-02-11T16:40:23.230Z,1.43
2019-02-11T16:42:50.615Z,1.60
2019-02-11T16:45:17.922Z,1.47
2019-02-11T16:47:45.162Z,1.10
2019-02-11T16:50:12.639Z,1.37
2019-02-11T16:52:39.879Z,1.83
2019-02-11T16:55:07.597Z,2.20
2019-02-11T16:57:34.864Z,1.40
2019-02-11T17:00:02.193Z,1.53
2019-02-11T17:02:29.449Z,2.00
2019-02-11T17:04:56.702Z,1.50
2019-02-11T17:07:23.936Z,1.33
2019-02-11T17:09:51.187Z,1.67
2019-02-11T17:12:18.480Z,2.70
2019-02-11T17:14:45.910Z,2.40
2019-02-11T17:17:13.321Z,2.33
2019-02-11T17:19:40.595Z,3.10
2019-02-11T17:22:07.820Z,2.47
2019-02-11T17:24:35.111Z,3.20
2019-02-11T17:27:02.399Z,2.70
2019-02-11T17:29:29.885Z,2.60
2019-02-11T17:31:57.222Z,3.17
2019-02-11T17:34:24.512Z,2.87
2019-02-11T17:36:51.752Z,2.87
2019-02-11T17:39:19.055Z,3.60
2019-02-11T17:41:46.299Z,5.67
2019-02-11T17:44:13.535Z,3.97
2019-02-11T17:46:40.764Z,4.37
2019-02-11T17:49:08.013Z,3.67
2019-02-11T17:51:35.240Z,4.07
2019-02-11T17:54:02.519Z,2.70
2019-02-11T17:56:29.828Z,3.53
2019-02-11T17:58:57.063Z,2.40
2019-02-11T18:01:24.480Z,2.57
2019-02-11T18:03:51.702Z,2.53
2019-02-11T18:06:18.911Z,2.70
2019-02-11T18:08:46.160Z,2.40
2019-02-11T18:11:13.420Z,2.97
2019-02-11T18:13:40.664Z,3.20
2019-02-11T18:16:07.915Z,3.20
2019-02-11T18:18:35.223Z,13.77
2019-02-11T18:21:02.462Z,16.30
2019-02-11T18:23:29.812Z,3.60
2019-02-11T18:25:57.035Z,3.67
2019-02-11T18:28:24.299Z,3.20
2019-02-11T18:30:51.523Z,3.70
2019-02-11T18:33:19.147Z,2.97
2019-02-11T18:35:46.512Z,3.27
2019-02-11T18:38:13.764Z,2.93
2019-02-11T18:40:40.992Z,3.10
2019-02-11T18:43:08.223Z,3.80
2019-02-11T18:45:35.488Z,2.57
2019-02-11T18:48:02.740Z,3.73
2019-02-11T18:50:30.092Z,3.10
2019-02-11T18:52:57.672Z,2.73
2019-02-11T18:55:24.923Z,3.53
2019-02-11T18:57:52.180Z,3.00
2019-02-11T19:00:19.548Z,2.63
2019-02-11T19:02:46.998Z,2.80
2019-02-11T19:05:15.032Z,3.97
2019-02-11T19:07:42.256Z,3.93
2019-02-11T19:10:10.251Z,3.33
2019-02-11T19:12:37.524Z,3.83
2019-02-11T19:15:05.884Z,3.03
2019-02-11T19:17:33.136Z,3.50
2019-02-11T19:20:00.391Z,6.03
2019-02-11T19:22:27.641Z,3.10
2019-02-11T19:24:54.899Z,3.40
2019-02-11T19:27:22.140Z,3.77
2019-02-11T19:29:49.384Z,3.87
2019-02-11T19:32:16.631Z,3.10
2019-02-11T19:34:43.947Z,2.67
2019-02-11T19:37:11.184Z,3.63
2019-02-11T19:39:38.430Z,3.73
2019-02-11T19:42:05.684Z,4.37
2019-02-11T19:44:32.921Z,3.97
2019-02-11T19:47:00.179Z,4.63
2019-02-11T19:49:27.423Z,4.13
2019-02-11T19:51:54.663Z,3.43
2019-02-11T19:54:21.887Z,4.40
2019-02-11T19:56:49.163Z,3.93
2019-02-11T19:59:16.429Z,3.13
2019-02-11T20:01:43.733Z,3.07
2019-02-11T20:04:11.004Z,3.33
2019-02-11T20:06:38.257Z,3.70
2019-02-11T20:09:06.412Z,3.60
2019-02-11T20:11:33.667Z,3.60
2019-02-11T20:14:01.346Z,3.60
2019-02-11T20:16:28.706Z,3.87
2019-02-11T20:18:55.968Z,4.20
2019-02-11T20:21:23.331Z,3.80
2019-02-11T20:23:50.686Z,3.90
2019-02-11T20:26:17.996Z,4.30
2019-02-11T20:28:45.299Z,3.70
2019-02-11T20:31:12.733Z,3.63
2019-02-11T20:33:40.115Z,4.07
2019-02-11T20:36:07.965Z,3.00
2019-02-11T20:38:35.215Z,2.93
2019-02-11T20:41:02.584Z,3.40
2019-02-11T20:43:29.850Z,3.23
2019-02-11T20:45:57.103Z,3.37
2019-02-11T20:48:24.371Z,3.30
2019-02-11T20:50:51.613Z,3.00
2019-02-11T20:53:18.848Z,2.67
2019-02-11T20:55:46.120Z,3.77
2019-02-11T20:58:13.379Z,3.80
2019-02-11T21:00:40.777Z,4.20
2019-02-11T21:03:08.718Z,4.37
2019-02-11T21:05:36.104Z,3.97
2019-02-11T21:08:03.348Z,3.60
2019-02-11T21:10:30.620Z,5.33
2019-02-11T21:12:57.888Z,7.70
2019-02-11T21:15:25.115Z,8.17
2019-02-11T21:17:52.350Z,8.10
2019-02-11T21:20:22.755Z,7.73
2019-02-11T21:22:50.328Z,7.93
2019-02-11T21:25:17.605Z,5.20
2019-02-11T21:27:45.167Z,6.83
2019-02-11T21:30:12.496Z,9.77
2019-02-11T21:32:39.750Z,13.47
2019-02-11T21:35:08.127Z,14.57
2019-02-11T21:37:35.404Z,11.00
2019-02-11T21:40:02.657Z,7.27
2019-02-11T21:42:29.916Z,7.57
2019-02-11T21:44:57.238Z,9.30
2019-02-11T21:47:24.482Z,25.00
2019-02-11T21:49:51.720Z,28.93
2019-02-11T21:52:19.396Z,20.27
2019-02-11T21:54:46.976Z,15.07
2019-02-11T21:57:14.354Z,10.60
2019-02-11T21:59:41.627Z,8.27
2019-02-11T22:02:08.981Z,9.23
2019-02-11T22:04:37.347Z,7.30
2019-02-11T22:07:04.647Z,6.70
2019-02-11T22:09:31.967Z,7.40
2019-02-11T22:11:59.851Z,5.73
2019-02-11T22:14:27.459Z,5.33
2019-02-11T22:16:54.786Z,5.23
2019-02-11T22:19:24.885Z,5.50
2019-02-11T22:21:52.475Z,5.97
2019-02-11T22:24:19.856Z,5.23
2019-02-11T22:26:47.083Z,3.87
2019-02-11T22:29:14.427Z,4.93
2019-02-11T22:31:41.765Z,3.97
2019-02-11T22:34:09.080Z,3.30
2019-02-11T22:36:36.331Z,4.07
2019-02-11T22:39:05.504Z,4.30
2019-02-11T22:41:33.008Z,5.07
2019-02-11T22:44:00.284Z,4.53
2019-02-11T22:46:27.643Z,3.93
2019-02-11T22:48:54.987Z,3.80
2019-02-11T22:51:22.615Z,3.20
2019-02-11T22:53:49.945Z,3.70
2019-02-11T22:56:18.086Z,4.17
2019-02-11T22:58:45.453Z,3.80
2019-02-11T23:01:12.780Z,3.53
2019-02-11T23:03:40.125Z,3.40
2019-02-11T23:06:07.387Z,3.63
2019-02-11T23:08:34.643Z,3.70
2019-02-11T23:11:01.884Z,5.43
2019-02-11T23:13:29.115Z,3.93
2019-02-11T23:15:56.363Z,4.03
2019-02-11T23:18:23.603Z,3.63
2019-02-11T23:20:52.242Z,4.17
2019-02-11T23:23:19.794Z,4.37
2019-02-11T23:25:47.016Z,3.70
2019-02-11T23:28:14.276Z,4.00
2019-02-11T23:30:41.612Z,4.00
2019-02-11T23:33:08.844Z,4.67
2019-02-11T23:35:36.120Z,4.80
2019-02-11T23:38:03.368Z,4.03
2019-02-11T23:40:30.631Z,4.03
2019-02-11T23:42:57.876Z,3.57
2019-02-11T23:45:25.101Z,4.70
2019-02-11T23:47:52.349Z,5.03
2019-02-11T23:50:19.588Z,4.57
2019-02-11T23:52:46.839Z,3.53
2019-02-11T23:55:14.091Z,5.00
2019-02-11T23:57:41.326Z,4.37
